createdAt,value
2018-02-19T00:01:19.673Z,34.80
2018-02-19T00:03:47.119Z,26.37
2018-02-19T00:06:14.552Z,31.30
2018-02-19T00:08:41.965Z,33.40
2018-02-19T00:11:09.373Z,29.63
2018-02-19T00:13:37.419Z,32.67
2018-02-19T00:16:04.827Z,30.93
2018-02-19T00:18:32.254Z,34.23
2018-02-19T00:20:59.687Z,29.43
2018-02-19T00:23:27.086Z,32.50
2018-02-19T00:25:54.507Z,32.60
2018-02-19T00:28:21.926Z,30.50
2018-02-19T00:30:49.344Z,27.70
2018-02-19T00:33:16.759Z,26.77
2018-02-19T00:35:44.214Z,26.43
2018-02-19T00:38:11.662Z,30.07
2018-02-19T00:40:39.094Z,26.33
2018-02-19T00:43:06.506Z,27.17
2018-02-19T00:45:33.972Z,25.40
2018-02-19T00:48:01.397Z,27.87
2018-02-19T00:50:28.809Z,22.05
2018-02-19T00:52:56.209Z,19.27
2018-02-19T00:55:23.672Z,20.40
2018-02-19T00:57:51.090Z,20.75
2018-02-19T01:00:18.514Z,23.33
2018-02-19T01:02:46.016Z,22.73
2018-02-19T01:05:13.437Z,21.02
2018-02-19T01:07:40.885Z,24.77
2018-02-19T01:10:08.341Z,24.20
2018-02-19T01:12:35.754Z,22.67
2018-02-19T01:15:03.173Z,25.80
2018-02-19T01:17:30.592Z,22.37
2018-02-19T01:19:58.030Z,26.40
2018-02-19T01:22:25.453Z,30.37
2018-02-19T01:24:52.970Z,26.27
2018-02-19T01:27:20.422Z,25.33
2018-02-19T01:29:47.862Z,26.80
2018-02-19T01:32:15.272Z,27.97
2018-02-19T01:34:42.673Z,27.90
2018-02-19T01:37:10.848Z,25.02
2018-02-19T01:39:38.290Z,29.83
2018-02-19T01:42:05.717Z,33.33
2018-02-19T01:44:33.146Z,29.50
2018-02-19T01:47:00.642Z,30.07
2018-02-19T01:49:28.037Z,32.60
2018-02-19T01:51:55.549Z,33.08
2018-02-19T01:54:22.990Z,38.47
2018-02-19T01:56:50.422Z,30.83
2018-02-19T01:59:17.817Z,31.57
2018-02-19T02:01:45.314Z,31.30
2018-02-19T02:04:12.731Z,32.37
2018-02-19T02:06:40.141Z,36.23
2018-02-19T02:09:07.566Z,33.50
2018-02-19T02:11:34.989Z,34.70
2018-02-19T02:14:02.482Z,33.20
2018-02-19T02:16:29.893Z,35.63
2018-02-19T02:18:57.468Z,35.00
2018-02-19T02:21:24.894Z,37.70
2018-02-19T02:23:52.319Z,40.67
2018-02-19T02:26:19.744Z,34.50
2018-02-19T02:28:47.154Z,39.40
2018-02-19T02:31:14.563Z,36.40
2018-02-19T02:33:41.994Z,36.67
2018-02-19T02:36:09.449Z,39.15
2018-02-19T02:38:36.876Z,38.43
2018-02-19T02:41:04.307Z,40.23
2018-02-19T02:43:31.738Z,37.90
2018-02-19T02:45:59.179Z,38.10
2018-02-19T02:48:26.594Z,41.17
2018-02-19T02:50:54.171Z,44.43
2018-02-19T02:53:21.596Z,45.60
2018-02-19T02:55:49.018Z,38.93
2018-02-19T02:58:16.524Z,36.65
2018-02-19T03:00:44.734Z,39.40
2018-02-19T03:03:12.159Z,43.17
2018-02-19T03:05:39.584Z,35.83
2018-02-19T03:08:07.033Z,39.88
2018-02-19T03:10:34.451Z,38.13
2018-02-19T03:13:01.901Z,41.07
2018-02-19T03:15:29.331Z,40.15
2018-02-19T03:17:56.756Z,40.93
2018-02-19T03:20:24.174Z,43.10
2018-02-19T03:22:51.599Z,36.50
2018-02-19T03:25:19.049Z,41.23
2018-02-19T03:27:46.464Z,41.37
2018-02-19T03:30:13.880Z,42.93
2018-02-19T03:32:41.303Z,42.67
2018-02-19T03:35:08.718Z,36.57
2018-02-19T03:37:36.255Z,40.70
2018-02-19T03:40:03.716Z,42.67
2018-02-19T03:42:31.149Z,44.97
2018-02-19T03:44:58.558Z,43.17
2018-02-19T03:47:26.032Z,43.38
2018-02-19T03:49:53.445Z,41.20
2018-02-19T03:52:20.913Z,42.10
2018-02-19T03:54:48.381Z,45.47
2018-02-19T03:57:15.790Z,40.83
2018-02-19T03:59:43.219Z,37.67
2018-02-19T04:02:10.633Z,33.03
2018-02-19T04:04:38.065Z,41.53
2018-02-19T04:07:05.527Z,37.03
2018-02-19T04:09:32.955Z,40.88
2018-02-19T04:12:00.365Z,40.73
2018-02-19T04:14:27.795Z,41.63
2018-02-19T04:16:55.214Z,31.87
2018-02-19T04:19:22.628Z,36.90
2018-02-19T04:21:50.070Z,35.80
2018-02-19T04:24:17.532Z,35.70
2018-02-19T04:26:44.931Z,40.43
2018-02-19T04:29:12.362Z,37.90
2018-02-19T04:31:39.771Z,44.70
2018-02-19T04:34:07.183Z,45.40
2018-02-19T04:36:34.596Z,40.37
2018-02-19T04:39:02.092Z,36.67
2018-02-19T04:41:29.510Z,44.03
2018-02-19T04:43:56.945Z,44.77
2018-02-19T04:46:40.783Z,42.27
2018-02-19T04:49:08.209Z,43.40
2018-02-19T04:51:35.629Z,43.70
2018-02-19T04:54:03.068Z,43.73
2018-02-19T04:56:30.505Z,45.07
2018-02-19T04:58:57.930Z,48.40
2018-02-19T05:01:25.346Z,45.13
2018-02-19T05:03:52.778Z,47.10
2018-02-19T05:06:21.028Z,46.37
2018-02-19T05:08:48.473Z,45.50
2018-02-19T05:11:15.891Z,51.00
2018-02-19T05:13:43.309Z,39.60
2018-02-19T05:16:10.736Z,42.80
2018-02-19T05:18:38.167Z,39.10
2018-02-19T05:21:05.610Z,40.38
2018-02-19T05:23:33.018Z,41.60
2018-02-19T05:26:00.470Z,36.50
2018-02-19T05:28:27.882Z,34.70
2018-02-19T05:30:55.334Z,36.33
2018-02-19T05:33:22.750Z,39.47
2018-02-19T05:35:50.173Z,35.10
2018-02-19T05:38:17.586Z,35.07
2018-02-19T05:40:45.034Z,45.63
2018-02-19T05:43:13.060Z,42.15
2018-02-19T05:45:40.584Z,38.70
2018-02-19T05:48:08.028Z,43.87
2018-02-19T05:50:35.453Z,42.70
2018-02-19T05:53:02.898Z,43.80
2018-02-19T05:55:30.358Z,40.00
2018-02-19T05:57:57.826Z,40.13
2018-02-19T06:00:25.267Z,38.13
2018-02-19T06:02:53.242Z,36.00
2018-02-19T06:05:20.719Z,37.80
2018-02-19T06:07:48.097Z,42.53
2018-02-19T06:10:15.535Z,34.40
2018-02-19T06:12:42.966Z,40.10
2018-02-19T06:15:10.387Z,42.33
2018-02-19T06:20:11.614Z,38.13
2018-02-19T06:22:39.059Z,50.17
2018-02-19T06:25:06.461Z,50.70
2018-02-19T06:27:33.926Z,41.17
2018-02-19T06:30:01.333Z,41.63
2018-02-19T06:32:28.805Z,40.85
2018-02-19T06:34:56.210Z,47.67
2018-02-19T06:37:24.181Z,41.22
2018-02-19T06:39:51.591Z,31.97
2018-02-19T06:42:18.997Z,30.87
2018-02-19T06:44:46.495Z,33.63
2018-02-19T06:47:13.953Z,31.03
2018-02-19T06:49:41.396Z,35.73
2018-02-19T06:52:08.823Z,28.30
2018-02-19T06:54:36.224Z,32.67
2018-02-19T06:57:03.655Z,29.87
2018-02-19T06:59:31.108Z,31.53
2018-02-19T07:01:58.525Z,32.28
2018-02-19T07:04:25.946Z,30.90
2018-02-19T07:06:53.370Z,29.10
2018-02-19T07:09:20.770Z,28.40
2018-02-19T07:11:48.188Z,29.57
2018-02-19T07:14:15.601Z,35.37
2018-02-19T07:16:43.092Z,36.50
2018-02-19T07:19:10.535Z,37.87
2018-02-19T07:21:37.959Z,40.23
2018-02-19T07:24:05.378Z,40.67
2018-02-19T07:26:32.833Z,41.93
2018-02-19T07:29:00.237Z,42.02
2018-02-19T07:31:27.705Z,40.47
2018-02-19T07:33:55.526Z,39.05
2018-02-19T07:36:22.943Z,35.77
2018-02-19T07:38:50.358Z,43.50
2018-02-19T07:41:17.779Z,44.77
2018-02-19T07:43:45.187Z,49.27
2018-02-19T07:46:12.590Z,46.08
2018-02-19T07:48:40.023Z,50.17
2018-02-19T07:51:07.429Z,46.83
2018-02-19T07:53:34.924Z,39.88
2018-02-19T07:56:02.342Z,38.37
2018-02-19T07:58:29.814Z,39.07
2018-02-19T08:00:57.181Z,41.00
2018-02-19T08:03:24.606Z,42.73
2018-02-19T08:05:52.028Z,41.70
2018-02-19T08:08:19.466Z,33.57
2018-02-19T08:10:46.869Z,39.07
2018-02-19T08:13:14.295Z,41.57
2018-02-19T08:15:41.726Z,53.07
2018-02-19T08:18:09.140Z,40.70
2018-02-19T08:20:36.541Z,35.33
2018-02-19T08:23:03.964Z,33.33
2018-02-19T08:25:31.375Z,43.38
2018-02-19T08:27:58.825Z,38.83
2018-02-19T08:30:27.030Z,34.72
2018-02-19T08:32:54.441Z,32.70
2018-02-19T08:35:21.898Z,33.03
2018-02-19T08:37:49.313Z,32.67
2018-02-19T08:40:16.750Z,33.73
2018-02-19T08:42:44.166Z,35.00
2018-02-19T08:45:11.647Z,36.40
2018-02-19T08:47:39.622Z,37.47
2018-02-19T08:50:07.062Z,35.97
2018-02-19T08:52:34.475Z,34.93
2018-02-19T08:55:01.906Z,37.97
2018-02-19T08:57:29.312Z,33.17
2018-02-19T08:59:56.733Z,34.17
2018-02-19T09:02:24.183Z,33.80
2018-02-19T09:04:51.612Z,34.93
2018-02-19T09:07:19.060Z,32.00
2018-02-19T09:09:46.493Z,33.40
2018-02-19T09:12:13.928Z,28.07
2018-02-19T09:14:41.449Z,34.70
2018-02-19T09:17:09.279Z,34.00
2018-02-19T09:19:36.702Z,34.17
2018-02-19T09:22:04.118Z,39.33
2018-02-19T09:24:31.594Z,40.07
2018-02-19T09:26:58.989Z,39.27
2018-02-19T09:29:26.410Z,36.93
2018-02-19T09:31:53.816Z,36.22
2018-02-19T09:34:21.251Z,36.20
2018-02-19T09:36:48.665Z,38.00
2018-02-19T09:39:16.106Z,36.95
2018-02-19T09:41:43.556Z,34.87
2018-02-19T09:44:10.997Z,37.53
2018-02-19T09:46:38.437Z,39.67
2018-02-19T09:49:05.835Z,38.53
2018-02-19T09:51:33.284Z,43.40
2018-02-19T09:54:00.689Z,37.13
2018-02-19T09:56:28.121Z,32.83
2018-02-19T09:58:55.596Z,38.63
2018-02-19T10:01:23.089Z,40.20
2018-02-19T10:03:50.501Z,36.07
2018-02-19T10:06:17.920Z,33.60
2018-02-19T10:08:45.378Z,32.60
2018-02-19T10:11:12.789Z,41.20
2018-02-19T10:13:40.209Z,36.60
2018-02-19T10:16:07.639Z,39.33
2018-02-19T10:18:35.056Z,33.03
2018-02-19T10:21:02.481Z,41.03
2018-02-19T10:23:30.658Z,43.38
2018-02-19T10:25:58.080Z,42.50
2018-02-19T10:28:25.492Z,36.63
2018-02-19T10:30:52.918Z,42.97
2018-02-19T10:33:20.324Z,36.00
2018-02-19T10:35:47.760Z,39.00
2018-02-19T10:38:15.183Z,37.10
2018-02-19T10:40:42.621Z,38.43
2018-02-19T10:43:10.052Z,34.73
2018-02-19T10:45:37.461Z,42.47
2018-02-19T10:48:04.883Z,39.27
2018-02-19T10:50:32.305Z,35.90
2018-02-19T10:52:59.754Z,35.00
2018-02-19T10:55:27.192Z,41.53
2018-02-19T10:57:54.771Z,32.83
2018-02-19T11:00:27.859Z,36.93
2018-02-19T11:02:55.394Z,33.47
2018-02-19T11:05:22.801Z,35.30
2018-02-19T11:07:50.229Z,38.23
2018-02-19T11:10:17.635Z,38.70
2018-02-19T11:12:45.047Z,42.90
2018-02-19T11:15:12.467Z,32.70
2018-02-19T11:17:39.893Z,38.37
2018-02-19T11:20:07.300Z,34.15
2018-02-19T11:22:34.735Z,40.47
2018-02-19T11:25:02.893Z,34.22
2018-02-19T11:27:30.318Z,39.67
2018-02-19T11:29:57.736Z,37.63
2018-02-19T11:32:25.178Z,37.40
2018-02-19T11:34:52.605Z,38.97
2018-02-19T11:37:20.029Z,36.08
2018-02-19T11:39:47.459Z,35.57
2018-02-19T11:42:14.915Z,37.63
2018-02-19T11:44:42.349Z,31.37
2018-02-19T11:47:09.829Z,33.30
2018-02-19T11:49:37.250Z,39.67
2018-02-19T11:52:04.749Z,32.13
2018-02-19T11:54:32.166Z,38.07
2018-02-19T11:56:59.594Z,35.10
2018-02-19T11:59:27.075Z,30.88
2018-02-19T12:01:54.494Z,37.73
2018-02-19T12:04:21.930Z,31.70
2018-02-19T12:06:49.385Z,32.90
2018-02-19T12:09:16.809Z,28.60
2018-02-19T12:11:44.245Z,32.23
2018-02-19T12:14:11.682Z,30.17
2018-02-19T12:16:39.159Z,24.00
2018-02-19T12:19:06.590Z,30.07
2018-02-19T12:21:35.015Z,36.13
2018-02-19T12:24:02.452Z,33.00
2018-02-19T12:26:29.873Z,33.55
2018-02-19T12:28:57.286Z,29.80
2018-02-19T12:31:24.705Z,34.50
2018-02-19T12:33:52.149Z,32.40
2018-02-19T12:36:19.855Z,31.70
2018-02-19T12:38:47.266Z,31.80
2018-02-19T12:41:14.665Z,30.93
2018-02-19T12:43:42.087Z,32.50
2018-02-19T12:46:09.499Z,29.17
2018-02-19T12:48:36.960Z,25.93
2018-02-19T12:51:04.376Z,24.97
2018-02-19T12:53:31.813Z,35.20
2018-02-19T12:55:59.218Z,27.63
2018-02-19T12:58:26.642Z,30.57
2018-02-19T13:00:54.084Z,27.50
2018-02-19T13:03:21.502Z,25.70
2018-02-19T13:05:48.912Z,25.30
2018-02-19T13:08:16.330Z,25.33
2018-02-19T13:10:43.779Z,28.00
2018-02-19T13:13:11.206Z,34.93
2018-02-19T13:15:38.730Z,29.83
2018-02-19T13:18:07.137Z,33.92
2018-02-19T13:20:34.555Z,29.20
2018-02-19T13:23:01.982Z,28.40
2018-02-19T13:25:29.429Z,34.50
2018-02-19T13:27:56.822Z,34.60
2018-02-19T13:30:24.244Z,33.03
2018-02-19T13:32:51.703Z,34.33
2018-02-19T13:35:19.083Z,33.57
2018-02-19T13:37:46.509Z,40.97
2018-02-19T13:40:14.002Z,31.63
2018-02-19T13:42:41.414Z,31.77
2018-02-19T13:45:08.830Z,34.43
2018-02-19T13:47:36.255Z,32.70
2018-02-19T13:50:03.700Z,31.33
2018-02-19T13:52:31.184Z,36.40
2018-02-19T13:54:58.633Z,32.47
2018-02-19T13:57:26.062Z,32.93
2018-02-19T13:59:53.490Z,48.40
2018-02-19T14:02:20.904Z,37.70
2018-02-19T14:04:48.332Z,36.23
2018-02-19T14:07:15.738Z,39.20
2018-02-19T14:09:43.153Z,35.90
2018-02-19T14:12:10.582Z,26.40
2018-02-19T14:14:38.040Z,35.13
2018-02-19T14:17:05.539Z,32.22
2018-02-19T14:19:32.996Z,41.50
2018-02-19T14:22:00.420Z,38.13
2018-02-19T14:24:27.853Z,41.57
2018-02-19T14:26:55.258Z,38.67
2018-02-19T14:29:22.718Z,29.00
2018-02-19T14:31:50.127Z,38.83
2018-02-19T14:34:17.553Z,30.53
2018-02-19T14:36:44.968Z,34.80
2018-02-19T14:39:12.386Z,32.47
2018-02-19T14:41:40.533Z,37.58
2018-02-19T14:44:08.046Z,38.73
2018-02-19T14:46:35.461Z,32.73
2018-02-19T14:49:02.869Z,32.70
2018-02-19T14:51:30.343Z,37.30
2018-02-19T14:53:57.719Z,38.50
2018-02-19T14:56:25.176Z,38.22
2018-02-19T14:58:52.613Z,35.70
2018-02-19T15:01:20.035Z,45.00
2018-02-19T15:03:47.473Z,38.10
2018-02-19T15:06:14.886Z,39.07
2018-02-19T15:08:42.406Z,44.37
2018-02-19T15:11:09.918Z,37.43
2018-02-19T15:13:37.338Z,58.57
2018-02-19T15:16:04.813Z,40.97
2018-02-19T15:18:32.257Z,35.50
2018-02-19T15:23:33.432Z,30.47
2018-02-19T15:26:00.852Z,41.87
2018-02-19T15:28:28.262Z,41.27
2018-02-19T15:30:55.674Z,31.40
2018-02-19T15:33:23.102Z,35.70
2018-02-19T15:35:50.569Z,39.37
2018-02-19T15:38:18.017Z,37.58
2018-02-19T15:40:45.442Z,33.37
2018-02-19T15:43:13.387Z,41.42
2018-02-19T15:45:40.825Z,38.67
2018-02-19T15:48:08.238Z,36.40
2018-02-19T15:50:35.653Z,33.13
2018-02-19T15:53:03.068Z,39.17
2018-02-19T15:55:30.497Z,37.00
2018-02-19T15:57:57.911Z,36.30
2018-02-19T16:00:25.424Z,35.57
2018-02-19T16:02:52.926Z,33.93
2018-02-19T16:05:20.334Z,36.10
2018-02-19T16:07:47.774Z,37.40
2018-02-19T16:10:15.190Z,37.20
2018-02-19T16:12:42.602Z,40.33
2018-02-19T16:15:10.037Z,32.20
2018-02-19T16:17:37.482Z,30.83
2018-02-19T16:20:04.891Z,32.65
2018-02-19T16:22:32.314Z,37.80
2018-02-19T16:24:59.754Z,35.73
2018-02-19T16:27:27.185Z,34.80
2018-02-19T16:29:54.602Z,36.10
2018-02-19T16:32:22.016Z,38.97
2018-02-19T16:34:49.422Z,37.93
2018-02-19T16:37:16.904Z,34.90
2018-02-19T16:39:44.769Z,39.53
2018-02-19T16:42:12.192Z,37.73
2018-02-19T16:44:39.613Z,31.53
2018-02-19T16:47:07.028Z,38.60
2018-02-19T16:49:34.514Z,35.07
2018-02-19T16:52:01.954Z,30.93
2018-02-19T16:54:30.059Z,38.20
2018-02-19T16:56:57.489Z,36.20
2018-02-19T16:59:24.914Z,34.27
2018-02-19T17:01:52.362Z,34.13
2018-02-19T17:04:20.875Z,37.07
2018-02-19T17:06:48.315Z,35.27
2018-02-19T17:09:15.731Z,37.57
2018-02-19T17:11:43.146Z,37.93
2018-02-19T17:14:10.562Z,37.85
2018-02-19T17:16:37.985Z,38.33
2018-02-19T17:19:05.400Z,37.63
2018-02-19T17:21:32.818Z,40.07
2018-02-19T17:24:00.386Z,33.97
2018-02-19T17:26:27.799Z,34.03
2018-02-19T17:28:55.226Z,37.50
2018-02-19T17:31:22.643Z,36.00
2018-02-19T17:33:50.066Z,36.33
2018-02-19T17:36:17.544Z,36.70
2018-02-19T17:38:44.949Z,39.07
2018-02-19T17:41:12.403Z,39.13
2018-02-19T17:43:39.821Z,35.43
2018-02-19T17:46:07.239Z,35.65
2018-02-19T17:48:34.667Z,41.13
2018-02-19T17:51:02.120Z,34.07
2018-02-19T17:53:29.590Z,39.28
2018-02-19T17:55:57.255Z,36.03
2018-02-19T17:58:24.711Z,34.60
2018-02-19T18:00:52.155Z,41.20
2018-02-19T18:03:20.180Z,39.25
2018-02-19T18:05:47.588Z,32.60
2018-02-19T18:08:15.001Z,36.40
2018-02-19T18:10:42.452Z,42.27
2018-02-19T18:13:09.999Z,37.97
2018-02-19T18:15:37.374Z,35.83
2018-02-19T18:18:04.828Z,40.53
2018-02-19T18:20:32.234Z,41.37
2018-02-19T18:22:59.659Z,40.53
2018-02-19T18:25:27.070Z,42.88
2018-02-19T18:27:54.490Z,42.40
2018-02-19T18:30:22.021Z,41.73
2018-02-19T18:32:49.473Z,47.45
2018-02-19T18:35:16.874Z,47.13
2018-02-19T18:37:44.289Z,45.77
2018-02-19T18:40:11.699Z,46.07
2018-02-19T18:42:40.152Z,42.57
2018-02-19T18:45:07.657Z,38.17
2018-02-19T18:47:35.083Z,38.80
2018-02-19T18:50:02.496Z,41.00
2018-02-19T18:52:29.941Z,40.77
2018-02-19T18:54:57.354Z,45.92
2018-02-19T18:57:24.837Z,43.07
2018-02-19T18:59:52.884Z,38.63
2018-02-19T19:02:20.333Z,43.00
2018-02-19T19:04:47.752Z,42.22
2018-02-19T19:07:26.861Z,45.57
2018-02-19T19:10:06.127Z,46.43
2018-02-19T19:12:33.578Z,41.97
2018-02-19T19:15:01.001Z,46.25
2018-02-19T19:17:28.409Z,33.43
2018-02-19T19:19:55.837Z,43.23
2018-02-19T19:22:23.424Z,46.80
2018-02-19T19:24:50.837Z,45.13
2018-02-19T19:27:18.269Z,49.63
2018-02-19T19:29:45.704Z,49.83
2018-02-19T19:32:13.107Z,40.30
2018-02-19T19:34:40.532Z,46.70
2018-02-19T19:37:07.948Z,50.27
2018-02-19T19:39:35.357Z,39.00
2018-02-19T19:42:02.840Z,45.05
2018-02-19T19:44:30.256Z,49.43
2018-02-19T19:46:57.665Z,45.43
2018-02-19T19:49:25.090Z,45.00
2018-02-19T19:51:52.517Z,53.67
2018-02-19T19:54:19.941Z,47.70
2018-02-19T19:56:47.364Z,45.17
2018-02-19T19:59:14.790Z,50.03
2018-02-19T20:01:42.260Z,41.67
2018-02-19T20:04:09.723Z,45.27
2018-02-19T20:06:37.158Z,46.73
2018-02-19T20:09:04.578Z,47.10
2018-02-19T20:11:32.169Z,47.57
2018-02-19T20:13:59.592Z,46.95
2018-02-19T20:16:27.034Z,45.47
2018-02-19T20:18:55.024Z,53.17
2018-02-19T20:21:22.433Z,49.93
2018-02-19T20:23:49.859Z,51.60
2018-02-19T20:26:17.279Z,45.00
2018-02-19T20:28:44.705Z,53.20
2018-02-19T20:31:12.135Z,50.88
2018-02-19T20:33:39.555Z,54.30
2018-02-19T20:36:07.013Z,49.70
2018-02-19T20:38:34.446Z,51.80
2018-02-19T20:41:01.895Z,44.73
2018-02-19T20:43:29.336Z,48.67
2018-02-19T20:45:56.739Z,53.67
2018-02-19T20:48:24.172Z,55.87
2018-02-19T20:50:51.688Z,55.87
2018-02-19T20:53:19.111Z,47.10
2018-02-19T20:55:46.723Z,49.47
2018-02-19T20:58:14.171Z,49.00
2018-02-19T21:00:41.627Z,49.60
2018-02-19T21:03:09.062Z,47.95
2018-02-19T21:05:36.505Z,48.53
2018-02-19T21:08:03.922Z,51.67
2018-02-19T21:10:31.337Z,55.90
2018-02-19T21:12:58.804Z,45.70
2018-02-19T21:15:26.483Z,47.58
2018-02-19T21:17:53.924Z,50.07
2018-02-19T21:20:24.173Z,52.77
2018-02-19T21:22:51.573Z,47.60
2018-02-19T21:25:19.011Z,56.73
2018-02-19T21:27:46.451Z,48.93
2018-02-19T21:30:13.861Z,50.40
2018-02-19T21:32:41.284Z,39.10
2018-02-19T21:35:08.745Z,58.20
2018-02-19T21:37:36.174Z,52.63
2018-02-19T21:40:03.640Z,52.80
2018-02-19T21:42:31.072Z,56.83
2018-02-19T21:44:58.502Z,51.40
2018-02-19T21:47:25.931Z,52.00
2018-02-19T21:49:53.367Z,51.67
2018-02-19T21:52:20.774Z,53.93
2018-02-19T21:54:48.275Z,52.23
2018-02-19T21:57:15.726Z,55.80
2018-02-19T22:02:40.213Z,53.90
2018-02-19T22:05:07.641Z,53.73
2018-02-19T22:07:35.056Z,62.10
2018-02-19T22:10:02.475Z,51.77
2018-02-19T22:12:29.890Z,50.38
2018-02-19T22:14:58.253Z,53.03
2018-02-19T22:17:25.669Z,48.47
2018-02-19T22:19:53.089Z,53.50
2018-02-19T22:22:20.511Z,51.53
2018-02-19T22:24:47.937Z,55.67
2018-02-19T22:27:15.357Z,51.10
2018-02-19T22:29:42.777Z,52.20
2018-02-19T22:32:10.185Z,57.47
2018-02-19T22:34:37.612Z,53.90
2018-02-19T22:37:05.010Z,69.10
2018-02-19T22:39:32.420Z,49.17
2018-02-19T22:41:59.831Z,55.00
2018-02-19T22:44:27.251Z,57.20
2018-02-19T22:46:54.653Z,54.40
2018-02-19T22:49:22.071Z,48.50
2018-02-19T22:51:49.482Z,58.47
2018-02-19T22:54:16.896Z,51.67
2018-02-19T22:56:44.302Z,57.73
2018-02-19T22:59:11.711Z,55.23
2018-02-19T23:01:39.122Z,47.17
2018-02-19T23:04:06.520Z,48.10
2018-02-19T23:06:33.945Z,56.73
2018-02-19T23:09:01.350Z,47.40
2018-02-19T23:11:28.764Z,53.25
2018-02-19T23:13:56.172Z,51.37
2018-02-19T23:16:23.587Z,54.63
2018-02-19T23:18:50.997Z,54.50
2018-02-19T23:21:18.431Z,51.23
2018-02-19T23:23:45.824Z,64.40
2018-02-19T23:26:13.236Z,48.83
2018-02-19T23:28:40.656Z,53.50
2018-02-19T23:31:08.073Z,55.87
2018-02-19T23:33:35.484Z,57.17
2018-02-19T23:36:02.902Z,56.47
2018-02-19T23:38:30.874Z,50.42
2018-02-19T23:40:58.290Z,49.77
2018-02-19T23:43:25.688Z,51.67
2018-02-19T23:45:53.112Z,55.37
2018-02-19T23:48:20.501Z,57.13
2018-02-19T23:50:47.921Z,56.40
2018-02-19T23:53:15.327Z,61.77
2018-02-19T23:55:42.752Z,64.43
2018-02-19T23:58:10.260Z,61.30
